Aviation Digital Data Service (ADDS)

Output produced by METARs form (1313 UTC 24 January 2017)
found at http://aviationweather.gov/adds/metars/
 
KCON 241120Z 2412/2512 04013KT 2SM -SN BR OVC015 WS015/08045KT 
     TEMPO 2412/2414 5SM -FZRA BR OVC030 
     FM241400 04012G25KT 2SM FZRAPL OVC008 
     FM241700 24013G22KT 1 1/2SM RA BR OVC015 
     FM250000 34013G19KT 3/4SM -DZ BR OVC007